sensor_id;sensor_type;location;lat;lon;timestamp;temperature;humidity
40556;DHT22;26250;45.422;11.100;2022-12-29T07:39:47;11.10;97.90
40556;DHT22;26250;45.422;11.100;2022-12-29T07:42:14;11.20;98.10
40556;DHT22;26250;45.422;11.100;2022-12-29T07:44:43;11.20;98.20
40556;DHT22;26250;45.422;11.100;2022-12-29T07:47:29;11.20;98.10
40556;DHT22;26250;45.422;11.100;2022-12-29T07:49:56;11.20;98.20
40556;DHT22;26250;45.422;11.100;2022-12-29T07:52:23;11.20;98.30
40556;DHT22;26250;45.422;11.100;2022-12-29T07:54:49;11.20;98.20
40556;DHT22;26250;45.422;11.100;2022-12-29T07:57:16;11.20;98.30
40556;DHT22;26250;45.422;11.100;2022-12-29T07:59:43;11.10;98.30
40556;DHT22;26250;45.422;11.100;2022-12-29T08:02:11;11.30;98.10
40556;DHT22;26250;45.422;11.100;2022-12-29T08:04:38;11.40;97.90
40556;DHT22;26250;45.422;11.100;2022-12-29T08:07:08;11.40;97.90
40556;DHT22;26250;45.422;11.100;2022-12-29T08:09:35;11.30;97.60
40556;DHT22;26250;45.422;11.100;2022-12-29T08:12:05;11.30;98.10
40556;DHT22;26250;45.422;11.100;2022-12-29T08:14:32;11.30;98.00
40556;DHT22;26250;45.422;11.100;2022-12-29T08:16:59;11.30;98.10
40556;DHT22;26250;45.422;11.100;2022-12-29T08:19:26;11.30;98.20
40556;DHT22;26250;45.422;11.100;2022-12-29T08:21:53;11.40;98.00
40556;DHT22;26250;45.422;11.100;2022-12-29T08:24:20;11.40;98.80
40556;DHT22;26250;45.422;11.100;2022-12-29T08:26:47;11.50;98.90
40556;DHT22;26250;45.422;11.100;2022-12-29T08:29:14;11.50;98.80
40556;DHT22;26250;45.422;11.100;2022-12-29T08:31:41;11.60;99.90
40556;DHT22;26250;45.422;11.100;2022-12-29T08:34:08;11.90;99.90
40556;DHT22;26250;45.422;11.100;2022-12-29T08:36:34;11.90;99.90
40556;DHT22;26250;45.422;11.100;2022-12-29T08:39:01;11.90;98.20
40556;DHT22;26250;45.422;11.100;2022-12-29T08:41:28;11.70;98.00
40556;DHT22;26250;45.422;11.100;2022-12-29T08:43:55;11.70;97.90
40556;DHT22;26250;45.422;11.100;2022-12-29T08:46:22;11.60;97.70
40556;DHT22;26250;45.422;11.100;2022-12-29T08:48:49;11.60;97.90
40556;DHT22;26250;45.422;11.100;2022-12-29T08:51:16;11.70;97.90
40556;DHT22;26250;45.422;11.100;2022-12-29T08:53:50;11.70;97.70
40556;DHT22;26250;45.422;11.100;2022-12-29T08:56:17;11.70;97.70
40556;DHT22;26250;45.422;11.100;2022-12-29T08:58:49;11.80;97.70
40556;DHT22;26250;45.422;11.100;2022-12-29T09:01:17;11.70;97.80
40556;DHT22;26250;45.422;11.100;2022-12-29T09:03:45;11.70;97.50
40556;DHT22;26250;45.422;11.100;2022-12-29T12:05:50;12.40;97.10
40556;DHT22;26250;45.422;11.100;2022-12-29T12:08:46;12.40;97.10
40556;DHT22;26250;45.422;11.100;2022-12-29T12:11:31;12.50;97.00
40556;DHT22;26250;45.422;11.100;2022-12-29T12:14:15;12.40;96.40
40556;DHT22;26250;45.422;11.100;2022-12-29T12:17:28;12.40;96.30
40556;DHT22;26250;45.422;11.100;2022-12-29T12:20:16;12.40;96.80
40556;DHT22;26250;45.422;11.100;2022-12-29T12:23:06;12.40;96.50
40556;DHT22;26250;45.422;11.100;2022-12-29T12:25:54;12.40;96.50
40556;DHT22;26250;45.422;11.100;2022-12-29T12:28:28;12.40;96.30
40556;DHT22;26250;45.422;11.100;2022-12-29T12:31:06;12.40;96.20
40556;DHT22;26250;45.422;11.100;2022-12-29T12:33:44;12.30;96.50
40556;DHT22;26250;45.422;11.100;2022-12-29T12:36:38;12.20;96.50
40556;DHT22;26250;45.422;11.100;2022-12-29T12:44:37;12.30;96.20
40556;DHT22;26250;45.422;11.100;2022-12-29T12:47:11;12.40;96.70
40556;DHT22;26250;45.422;11.100;2022-12-29T13:00:14;12.20;97.40
40556;DHT22;26250;45.422;11.100;2022-12-29T13:06:11;12.30;97.80
40556;DHT22;26250;45.422;11.100;2022-12-29T13:26:21;12.30;98.10
40556;DHT22;26250;45.422;11.100;2022-12-29T13:31:33;12.00;98.50
40556;DHT22;26250;45.422;11.100;2022-12-29T13:36:43;12.10;98.90
40556;DHT22;26250;45.422;11.100;2022-12-29T13:39:18;12.10;98.90
40556;DHT22;26250;45.422;11.100;2022-12-29T13:41:52;12.10;98.80
40556;DHT22;26250;45.422;11.100;2022-12-29T13:44:33;12.10;98.50
40556;DHT22;26250;45.422;11.100;2022-12-29T13:49:46;12.30;98.30
40556;DHT22;26250;45.422;11.100;2022-12-29T13:52:39;12.10;98.20
40556;DHT22;26250;45.422;11.100;2022-12-29T13:55:30;12.10;98.40
40556;DHT22;26250;45.422;11.100;2022-12-29T14:03:49;12.80;99.90
40556;DHT22;26250;45.422;11.100;2022-12-29T14:06:24;13.10;99.90
40556;DHT22;26250;45.422;11.100;2022-12-29T14:09:01;13.40;99.90
40556;DHT22;26250;45.422;11.100;2022-12-29T14:11:42;13.50;99.90
40556;DHT22;26250;45.422;11.100;2022-12-29T14:14:19;13.50;99.90
40556;DHT22;26250;45.422;11.100;2022-12-29T14:16:48;13.60;99.90
40556;DHT22;26250;45.422;11.100;2022-12-29T14:19:29;13.70;99.90
40556;DHT22;26250;45.422;11.100;2022-12-29T14:22:06;13.80;99.90
40556;DHT22;26250;45.422;11.100;2022-12-29T14:29:49;13.90;99.90
40556;DHT22;26250;45.422;11.100;2022-12-29T14:34:54;13.40;96.20
40556;DHT22;26250;45.422;11.100;2022-12-29T14:40:16;13.10;97.60
40556;DHT22;26250;45.422;11.100;2022-12-29T14:42:51;13.00;97.10
40556;DHT22;26250;45.422;11.100;2022-12-29T14:47:47;12.80;97.30
40556;DHT22;26250;45.422;11.100;2022-12-29T14:52:52;12.50;98.30
40556;DHT22;26250;45.422;11.100;2022-12-29T14:55:38;12.60;98.10
40556;DHT22;26250;45.422;11.100;2022-12-29T14:58:22;12.70;97.80
40556;DHT22;26250;45.422;11.100;2022-12-29T15:00:53;12.70;97.70
40556;DHT22;26250;45.422;11.100;2022-12-29T15:03:22;12.70;97.70
40556;DHT22;26250;45.422;11.100;2022-12-29T15:05:56;12.70;97.80
40556;DHT22;26250;45.422;11.100;2022-12-29T15:08:31;12.70;98.00
40556;DHT22;26250;45.422;11.100;2022-12-29T15:11:06;12.70;98.10
40556;DHT22;26250;45.422;11.100;2022-12-29T15:13:38;12.50;98.20
40556;DHT22;26250;45.422;11.100;2022-12-29T15:18:47;12.60;98.30
40556;DHT22;26250;45.422;11.100;2022-12-29T15:21:15;12.70;98.10
40556;DHT22;26250;45.422;11.100;2022-12-29T15:23:44;12.60;97.90
40556;DHT22;26250;45.422;11.100;2022-12-29T15:26:12;12.50;98.00
40556;DHT22;26250;45.422;11.100;2022-12-29T15:28:49;12.40;98.10
40556;DHT22;26250;45.422;11.100;2022-12-29T15:31:18;12.40;98.30
40556;DHT22;26250;45.422;11.100;2022-12-29T15:34:01;12.50;98.30
40556;DHT22;26250;45.422;11.100;2022-12-29T15:36:38;12.60;97.80
40556;DHT22;26250;45.422;11.100;2022-12-29T15:39:29;12.70;97.80
40556;DHT22;26250;45.422;11.100;2022-12-29T15:42:00;12.70;97.90
40556;DHT22;26250;45.422;11.100;2022-12-29T15:44:40;12.70;97.90
40556;DHT22;26250;45.422;11.100;2022-12-29T15:49:47;12.70;98.10
40556;DHT22;26250;45.422;11.100;2022-12-29T15:52:20;12.70;98.00
40556;DHT22;26250;45.422;11.100;2022-12-29T15:54:52;12.70;98.00
40556;DHT22;26250;45.422;11.100;2022-12-29T15:57:25;12.60;98.00
40556;DHT22;26250;45.422;11.100;2022-12-29T15:59:53;12.40;98.20
40556;DHT22;26250;45.422;11.100;2022-12-29T16:02:24;12.50;98.50
40556;DHT22;26250;45.422;11.100;2022-12-29T16:04:52;12.60;97.90
40556;DHT22;26250;45.422;11.100;2022-12-29T16:07:55;12.70;97.60
40556;DHT22;26250;45.422;11.100;2022-12-29T16:10:47;12.60;97.50
40556;DHT22;26250;45.422;11.100;2022-12-29T16:13:39;12.60;97.50
40556;DHT22;26250;45.422;11.100;2022-12-29T16:16:19;12.50;97.90
40556;DHT22;26250;45.422;11.100;2022-12-29T16:18:49;12.60;99.90
40556;DHT22;26250;45.422;11.100;2022-12-29T16:21:26;12.60;97.80
40556;DHT22;26250;45.422;11.100;2022-12-29T16:23:56;12.60;97.40
40556;DHT22;26250;45.422;11.100;2022-12-29T16:26:25;12.60;97.30
40556;DHT22;26250;45.422;11.100;2022-12-29T16:28:57;12.60;97.30
40556;DHT22;26250;45.422;11.100;2022-12-29T16:31:35;12.60;97.00
40556;DHT22;26250;45.422;11.100;2022-12-29T16:34:25;12.70;97.20
40556;DHT22;26250;45.422;11.100;2022-12-29T16:37:01;12.70;96.80
40556;DHT22;26250;45.422;11.100;2022-12-29T16:39:34;12.80;96.90
40556;DHT22;26250;45.422;11.100;2022-12-29T16:42:32;12.80;96.80
40556;DHT22;26250;45.422;11.100;2022-12-29T16:44:48;12.80;96.80
40556;DHT22;26250;45.422;11.100;2022-12-29T16:47:19;12.80;97.10
40556;DHT22;26250;45.422;11.100;2022-12-29T16:49:50;12.80;97.10
40556;DHT22;26250;45.422;11.100;2022-12-29T16:52:30;12.80;96.80
40556;DHT22;26250;45.422;11.100;2022-12-29T16:55:00;12.90;97.00
40556;DHT22;26250;45.422;11.100;2022-12-29T16:57:32;12.90;97.50
40556;DHT22;26250;45.422;11.100;2022-12-29T17:00:05;12.80;97.60
40556;DHT22;26250;45.422;11.100;2022-12-29T17:02:33;12.80;97.40
40556;DHT22;26250;45.422;11.100;2022-12-29T17:05:16;12.80;97.10
40556;DHT22;26250;45.422;11.100;2022-12-29T17:07:44;12.70;97.30
40556;DHT22;26250;45.422;11.100;2022-12-29T17:10:12;12.60;98.30
40556;DHT22;26250;45.422;11.100;2022-12-29T17:12:45;12.70;98.00
40556;DHT22;26250;45.422;11.100;2022-12-29T17:15:25;12.70;97.70
40556;DHT22;26250;45.422;11.100;2022-12-29T17:17:55;12.60;97.90
40556;DHT22;26250;45.422;11.100;2022-12-29T17:20:25;12.70;97.70
40556;DHT22;26250;45.422;11.100;2022-12-29T17:22:57;12.90;97.30
40556;DHT22;26250;45.422;11.100;2022-12-29T17:25:30;12.90;97.00
40556;DHT22;26250;45.422;11.100;2022-12-29T17:28:01;12.80;97.20
40556;DHT22;26250;45.422;11.100;2022-12-29T17:30:32;12.70;97.50
40556;DHT22;26250;45.422;11.100;2022-12-29T17:33:03;12.80;97.80
40556;DHT22;26250;45.422;11.100;2022-12-29T17:35:30;12.60;97.80
40556;DHT22;26250;45.422;11.100;2022-12-29T17:37:57;12.70;97.90
40556;DHT22;26250;45.422;11.100;2022-12-29T17:40:27;12.70;97.90
40556;DHT22;26250;45.422;11.100;2022-12-29T17:42:57;12.80;97.70
40556;DHT22;26250;45.422;11.100;2022-12-29T17:45:26;12.80;97.00
40556;DHT22;26250;45.422;11.100;2022-12-29T17:47:54;12.80;97.20
40556;DHT22;26250;45.422;11.100;2022-12-29T17:50:24;12.90;96.80
40556;DHT22;26250;45.422;11.100;2022-12-29T17:52:57;12.80;97.00
40556;DHT22;26250;45.422;11.100;2022-12-29T17:55:27;12.60;97.50
40556;DHT22;26250;45.422;11.100;2022-12-29T18:00:41;12.70;97.10
40556;DHT22;26250;45.422;11.100;2022-12-29T18:03:17;12.70;97.50
40556;DHT22;26250;45.422;11.100;2022-12-29T18:05:44;12.70;97.60
40556;DHT22;26250;45.422;11.100;2022-12-29T18:08:11;12.60;97.60
40556;DHT22;26250;45.422;11.100;2022-12-29T18:10:41;12.60;97.80
40556;DHT22;26250;45.422;11.100;2022-12-29T18:13:19;12.80;97.50
40556;DHT22;26250;45.422;11.100;2022-12-29T18:15:47;12.90;97.10
40556;DHT22;26250;45.422;11.100;2022-12-29T18:18:22;12.90;97.10
40556;DHT22;26250;45.422;11.100;2022-12-29T18:20:51;12.90;96.90
40556;DHT22;26250;45.422;11.100;2022-12-29T18:23:25;12.80;97.20
40556;DHT22;26250;45.422;11.100;2022-12-29T18:25:59;12.70;97.70
40556;DHT22;26250;45.422;11.100;2022-12-29T18:28:27;12.80;97.60
40556;DHT22;26250;45.422;11.100;2022-12-29T18:30:56;12.90;97.30
40556;DHT22;26250;45.422;11.100;2022-12-29T18:33:23;13.00;97.20
40556;DHT22;26250;45.422;11.100;2022-12-29T18:36:03;13.10;99.40
40556;DHT22;26250;45.422;11.100;2022-12-29T18:38:30;13.20;99.50
40556;DHT22;26250;45.422;11.100;2022-12-29T18:40:58;13.50;99.90
40556;DHT22;26250;45.422;11.100;2022-12-29T18:43:25;13.70;99.90
40556;DHT22;26250;45.422;11.100;2022-12-29T18:45:52;13.80;99.90
40556;DHT22;26250;45.422;11.100;2022-12-29T18:48:20;13.90;98.60
40556;DHT22;26250;45.422;11.100;2022-12-29T18:50:47;14.00;99.90
40556;DHT22;26250;45.422;11.100;2022-12-29T18:53:19;14.10;97.60
40556;DHT22;26250;45.422;11.100;2022-12-29T18:55:47;14.00;98.70
40556;DHT22;26250;45.422;11.100;2022-12-29T18:58:14;14.00;96.50
40556;DHT22;26250;45.422;11.100;2022-12-29T19:00:41;13.90;96.20
40556;DHT22;26250;45.422;11.100;2022-12-29T19:03:13;13.70;95.90
40556;DHT22;26250;45.422;11.100;2022-12-29T19:05:42;13.30;96.70
40556;DHT22;26250;45.422;11.100;2022-12-29T19:08:10;13.10;97.00
40556;DHT22;26250;45.422;11.100;2022-12-29T19:10:38;13.10;97.10
40556;DHT22;26250;45.422;11.100;2022-12-29T19:13:05;13.20;96.90
40556;DHT22;26250;45.422;11.100;2022-12-29T19:15:35;13.30;96.70
40556;DHT22;26250;45.422;11.100;2022-12-29T19:18:05;13.30;96.80
40556;DHT22;26250;45.422;11.100;2022-12-29T19:20:55;13.30;96.70
40556;DHT22;26250;45.422;11.100;2022-12-29T19:23:25;13.30;96.80
40556;DHT22;26250;45.422;11.100;2022-12-29T19:25:53;13.10;97.10
40556;DHT22;26250;45.422;11.100;2022-12-29T19:28:25;13.10;97.20
40556;DHT22;26250;45.422;11.100;2022-12-29T19:30:57;13.10;97.20
40556;DHT22;26250;45.422;11.100;2022-12-29T19:33:26;13.00;97.30
40556;DHT22;26250;45.422;11.100;2022-12-29T19:35:58;13.10;97.20
40556;DHT22;26250;45.422;11.100;2022-12-29T19:38:26;13.10;97.00
40556;DHT22;26250;45.422;11.100;2022-12-29T19:40:52;13.20;97.00
40556;DHT22;26250;45.422;11.100;2022-12-29T19:43:19;13.20;96.90
40556;DHT22;26250;45.422;11.100;2022-12-29T19:45:46;13.20;97.00
40556;DHT22;26250;45.422;11.100;2022-12-29T19:48:16;13.20;97.20
40556;DHT22;26250;45.422;11.100;2022-12-29T19:50:43;13.20;97.30
40556;DHT22;26250;45.422;11.100;2022-12-29T19:53:11;13.00;97.70
40556;DHT22;26250;45.422;11.100;2022-12-29T19:55:45;13.00;97.70
40556;DHT22;26250;45.422;11.100;2022-12-29T19:58:13;13.10;97.40
40556;DHT22;26250;45.422;11.100;2022-12-29T20:00:41;13.10;97.40
40556;DHT22;26250;45.422;11.100;2022-12-29T20:03:09;13.10;97.50
40556;DHT22;26250;45.422;11.100;2022-12-29T20:05:37;13.20;97.50
40556;DHT22;26250;45.422;11.100;2022-12-29T20:08:04;13.20;97.20
40556;DHT22;26250;45.422;11.100;2022-12-29T20:10:32;13.20;97.20
40556;DHT22;26250;45.422;11.100;2022-12-29T20:12:59;13.10;97.30
40556;DHT22;26250;45.422;11.100;2022-12-29T20:15:26;13.10;97.10
40556;DHT22;26250;45.422;11.100;2022-12-29T20:17:52;13.10;97.00
40556;DHT22;26250;45.422;11.100;2022-12-29T20:20:39;13.20;97.00
40556;DHT22;26250;45.422;11.100;2022-12-29T20:23:06;13.30;97.10
40556;DHT22;26250;45.422;11.100;2022-12-29T20:25:34;13.20;96.90
40556;DHT22;26250;45.422;11.100;2022-12-29T20:28:12;13.20;96.90
40556;DHT22;26250;45.422;11.100;2022-12-29T20:30:39;13.20;96.90
40556;DHT22;26250;45.422;11.100;2022-12-29T20:33:07;13.10;97.00
40556;DHT22;26250;45.422;11.100;2022-12-29T20:35:36;13.20;96.90
40556;DHT22;26250;45.422;11.100;2022-12-29T20:38:03;13.20;96.80
40556;DHT22;26250;45.422;11.100;2022-12-29T20:40:30;13.20;96.70
40556;DHT22;26250;45.422;11.100;2022-12-29T20:42:57;13.10;96.70
40556;DHT22;26250;45.422;11.100;2022-12-29T20:45:24;13.20;96.50
40556;DHT22;26250;45.422;11.100;2022-12-29T20:47:52;13.20;96.50
40556;DHT22;26250;45.422;11.100;2022-12-29T20:50:19;13.10;96.60
40556;DHT22;26250;45.422;11.100;2022-12-29T20:52:46;13.00;96.70
40556;DHT22;26250;45.422;11.100;2022-12-29T20:55:13;13.10;96.70
40556;DHT22;26250;45.422;11.100;2022-12-29T20:57:41;13.20;96.60
40556;DHT22;26250;45.422;11.100;2022-12-29T21:00:28;13.10;96.80
40556;DHT22;26250;45.422;11.100;2022-12-29T21:03:02;13.10;96.70
40556;DHT22;26250;45.422;11.100;2022-12-29T21:05:29;13.20;96.60
40556;DHT22;26250;45.422;11.100;2022-12-29T21:07:56;13.00;96.80
40556;DHT22;26250;45.422;11.100;2022-12-29T21:10:25;12.90;97.10
40556;DHT22;26250;45.422;11.100;2022-12-29T21:12:52;12.80;97.30
40556;DHT22;26250;45.422;11.100;2022-12-29T21:15:19;12.90;97.10
40556;DHT22;26250;45.422;11.100;2022-12-29T21:17:46;12.90;97.20
40556;DHT22;26250;45.422;11.100;2022-12-29T21:20:16;12.80;97.20
40556;DHT22;26250;45.422;11.100;2022-12-29T21:22:46;12.50;97.90
40556;DHT22;26250;45.422;11.100;2022-12-29T21:25:13;12.40;98.10
40556;DHT22;26250;45.422;11.100;2022-12-29T21:27:40;12.60;97.90
40556;DHT22;26250;45.422;11.100;2022-12-29T21:30:10;12.70;97.80
40556;DHT22;26250;45.422;11.100;2022-12-29T21:32:37;12.80;97.60
40556;DHT22;26250;45.422;11.100;2022-12-29T21:35:04;12.70;97.60
40556;DHT22;26250;45.422;11.100;2022-12-29T21:37:31;12.50;98.30
40556;DHT22;26250;45.422;11.100;2022-12-29T21:39:58;12.70;97.90
40556;DHT22;26250;45.422;11.100;2022-12-29T21:42:25;12.80;97.70
40556;DHT22;26250;45.422;11.100;2022-12-29T21:44:53;12.70;97.70
40556;DHT22;26250;45.422;11.100;2022-12-29T21:47:46;12.80;97.70
40556;DHT22;26250;45.422;11.100;2022-12-29T21:50:31;12.90;97.50
40556;DHT22;26250;45.422;11.100;2022-12-29T21:52:58;12.80;97.60
40556;DHT22;26250;45.422;11.100;2022-12-29T21:55:25;12.80;97.50
40556;DHT22;26250;45.422;11.100;2022-12-29T21:57:52;12.90;97.40
40556;DHT22;26250;45.422;11.100;2022-12-29T22:00:37;12.90;97.00
40556;DHT22;26250;45.422;11.100;2022-12-29T22:03:23;13.00;96.90
40556;DHT22;26250;45.422;11.100;2022-12-29T22:06:11;12.90;97.00
40556;DHT22;26250;45.422;11.100;2022-12-29T22:08:57;12.80;97.20
40556;DHT22;26250;45.422;11.100;2022-12-29T22:11:42;12.80;97.10
40556;DHT22;26250;45.422;11.100;2022-12-29T22:14:27;12.80;97.20
40556;DHT22;26250;45.422;11.100;2022-12-29T22:16:54;12.80;97.00
40556;DHT22;26250;45.422;11.100;2022-12-29T22:19:21;12.80;97.10
40556;DHT22;26250;45.422;11.100;2022-12-29T22:21:48;12.90;97.00
40556;DHT22;26250;45.422;11.100;2022-12-29T22:24:16;12.70;97.20
40556;DHT22;26250;45.422;11.100;2022-12-29T22:26:43;12.70;97.40
40556;DHT22;26250;45.422;11.100;2022-12-29T22:29:09;12.70;97.10
40556;DHT22;26250;45.422;11.100;2022-12-29T22:31:36;12.60;97.40
